Time;durP1;ratioP1;P1;durP2;ratioP2;P2;SDS_P1;SDS_P2;PMS_P1;PMS_P2;Temp;Humidity;BMP_temperature;BMP_pressure;BME280_temperature;BME280_humidity;BME280_pressure;Samples;Min_cycle;Max_cycle;Signal;HPM_P1;HPM_P2
2022/01/17 00:01:08;;;;;;;18.70;2.85;;;5.80;99.90;;;;;;6135618;23;20017;-90
2022/01/17 00:03:34;;;;;;;19.23;2.78;;;5.80;99.90;;;;;;6135654;23;20036;-89
2022/01/17 00:06:00;;;;;;;15.40;2.53;;;5.80;99.90;;;;;;6135562;23;20017;-89
2022/01/17 00:08:31;;;;;;;22.93;3.30;;;5.80;99.90;;;;;;6136362;23;20013;-89
2022/01/17 00:11:03;;;;;;;19.95;3.05;;;5.80;99.90;;;;;;6135747;23;20024;-91
2022/01/17 00:13:34;;;;;;;20.55;2.92;;;5.80;99.90;;;;;;6135682;23;20100;-91
2022/01/17 00:16:12;;;;;;;20.95;3.90;;;5.80;99.90;;;;;;6136113;23;20021;-90
2022/01/17 00:21:06;;;;;;;22.30;3.58;;;5.80;99.90;;;;;;6160228;23;20256;-88
2022/01/17 00:23:34;;;;;;;;;;;5.80;99.90;;;;;;6136118;23;20013;-90
2022/01/17 00:26:00;;;;;;;19.55;2.45;;;5.70;99.90;;;;;;6135419;23;19951;-93
2022/01/17 00:28:26;;;;;;;22.38;2.67;;;5.80;99.90;;;;;;6135562;23;20044;-90
2022/01/17 00:30:52;;;;;;;16.20;2.37;;;5.80;99.90;;;;;;6135278;23;20013;-90
2022/01/17 00:33:17;;;;;;;19.03;2.30;;;5.70;99.90;;;;;;6135187;23;20017;-89
2022/01/17 00:35:43;;;;;;;16.83;2.17;;;5.70;99.90;;;;;;6134921;23;20020;-90
2022/01/17 00:38:12;;;;;;;23.73;3.43;;;5.70;99.90;;;;;;6135145;23;20107;-88
2022/01/17 00:40:38;;;;;;;16.00;1.90;;;5.70;99.90;;;;;;6135337;23;20121;-91
2022/01/17 00:43:04;;;;;;;18.73;2.17;;;5.70;99.90;;;;;;6135124;23;20084;-90
2022/01/17 00:45:31;;;;;;;16.57;1.63;;;5.70;99.90;;;;;;6135564;23;20013;-89
2022/01/17 00:47:58;;;;;;;15.23;2.33;;;5.70;99.90;;;;;;6159735;23;20025;-90
2022/01/17 00:50:25;;;;;;;20.08;2.40;;;5.70;99.90;;;;;;6135273;23;20024;-91
2022/01/17 00:52:51;;;;;;;24.08;3.30;;;5.70;99.90;;;;;;6135371;23;20478;-91
2022/01/17 00:55:21;;;;;;;22.60;2.92;;;5.60;99.90;;;;;;6135369;23;20017;-92
2022/01/17 00:57:46;;;;;;;17.67;2.35;;;5.70;99.90;;;;;;6135242;23;20410;-93
2022/01/17 01:00:13;;;;;;;16.67;3.10;;;5.60;99.90;;;;;;6135256;23;20344;-91
2022/01/17 01:02:40;;;;;;;18.60;2.80;;;5.60;99.90;;;;;;6136362;23;20028;-94
2022/01/17 01:05:07;;;;;;;20.50;2.53;;;5.60;99.90;;;;;;6135016;23;20013;-95
2022/01/17 01:07:33;;;;;;;17.33;2.60;;;5.60;99.90;;;;;;6135094;23;20029;-91
2022/01/17 01:10:10;;;;;;;21.90;2.70;;;5.60;99.90;;;;;;6159865;23;20013;-92
2022/01/17 01:12:39;;;;;;;17.38;3.33;;;5.60;99.90;;;;;;6135294;23;20055;-91
2022/01/17 01:15:12;;;;;;;17.42;2.95;;;5.50;99.90;;;;;;6134970;23;20044;-91
2022/01/17 01:17:49;;;;;;;18.95;2.95;;;5.50;99.90;;;;;;6135333;23;20013;-90
2022/01/17 01:28:30;;;;;;;18.25;2.17;;;5.60;99.90;;;;;;6159797;23;20028;-90
2022/01/17 01:30:58;;;;;;;19.23;2.47;;;5.60;99.90;;;;;;6135306;23;20139;-90
2022/01/17 01:33:29;;;;;;;18.13;2.75;;;5.60;99.90;;;;;;6135008;23;20013;-91
2022/01/17 01:36:12;;;;;;;20.25;2.20;;;5.60;99.90;;;;;;6135166;23;20076;-88
2022/01/17 01:38:40;;;;;;;18.58;2.50;;;5.60;99.90;;;;;;6135614;23;20017;-93
2022/01/17 01:41:06;;;;;;;14.27;2.10;;;5.60;99.90;;;;;;6135734;23;20040;-90
2022/01/17 01:43:31;;;;;;;15.97;2.47;;;5.60;99.90;;;;;;6135065;23;20040;-91
2022/01/17 01:46:00;;;;;;;23.20;3.10;;;5.60;99.90;;;;;;6135134;23;20283;-91
2022/01/17 01:48:27;;;;;;;23.60;2.88;;;5.60;99.90;;;;;;6139815;23;20085;-92
2022/01/17 01:50:53;;;;;;;23.80;3.83;;;5.70;99.90;;;;;;6144480;23;20324;-91
2022/01/17 01:53:19;;;;;;;21.60;2.50;;;5.60;99.90;;;;;;6143894;23;20041;-92
2022/01/17 01:55:45;;;;;;;17.87;2.90;;;5.60;99.90;;;;;;6141547;23;20055;-91
2022/01/17 01:58:11;;;;;;;15.30;2.47;;;5.60;99.90;;;;;;6137039;23;20014;-91
2022/01/17 02:08:36;;;;;;;20.25;2.78;;;5.60;99.90;;;;;;6107268;23;20027;-85
2022/01/17 02:11:02;;;;;;;20.57;2.40;;;5.60;99.90;;;;;;6085077;23;20023;-85
2022/01/17 02:13:28;;;;;;;21.87;2.97;;;5.50;99.90;;;;;;6061088;23;20078;-84
2022/01/17 02:16:02;;;;;;;20.20;2.60;;;5.50;99.90;;;;;;6100425;23;20019;-85
2022/01/17 02:18:30;;;;;;;19.90;2.35;;;5.50;99.90;;;;;;6073283;23;20474;-85
2022/01/17 02:26:13;;;;;;;19.52;2.47;;;5.40;99.90;;;;;;6151900;23;20101;-91
2022/01/17 02:28:51;;;;;;;22.63;3.47;;;5.40;99.90;;;;;;6161745;23;20426;-91
2022/01/17 02:31:17;;;;;;;24.00;2.60;;;5.40;99.90;;;;;;6161160;23;20021;-91
2022/01/17 02:37:32;;;;;;;24.85;2.97;;;5.30;99.90;;;;;;6195758;23;20027;-88
2022/01/17 02:39:58;;;;;;;24.10;2.55;;;5.30;99.90;;;;;;6176207;23;20017;-86
2022/01/17 02:42:26;;;;;;;20.00;2.80;;;5.30;99.90;;;;;;6203280;23;20105;-88
2022/01/17 02:44:55;;;;;;;16.95;2.38;;;5.30;99.90;;;;;;6168785;23;20019;-91
2022/01/17 02:47:23;;;;;;;22.30;2.83;;;5.30;99.90;;;;;;6161028;23;20028;-89
2022/01/17 02:49:48;;;;;;;19.23;3.22;;;5.30;99.90;;;;;;6161081;23;20028;-87
2022/01/17 02:52:14;;;;;;;17.53;2.67;;;5.30;99.90;;;;;;6187067;23;20017;-86
2022/01/17 02:54:40;;;;;;;18.53;2.80;;;5.30;99.90;;;;;;6160743;23;20025;-86
2022/01/17 02:57:07;;;;;;;19.10;2.60;;;5.30;99.90;;;;;;6160850;23;20508;-91
2022/01/17 02:59:33;;;;;;;21.77;2.50;;;5.30;99.90;;;;;;6160524;23;20021;-88
2022/01/17 03:01:59;;;;;;;12.60;2.40;;;5.30;99.90;;;;;;6160873;23;20019;-88
2022/01/17 03:04:25;;;;;;;24.23;2.85;;;5.30;99.90;;;;;;6161014;23;20017;-90
2022/01/17 03:06:52;;;;;;;19.70;2.47;;;5.30;99.90;;;;;;6160817;23;20044;-92
2022/01/17 03:09:19;;;;;;;17.35;2.25;;;5.40;99.90;;;;;;6161051;23;20017;-88
2022/01/17 03:11:45;;;;;;;23.27;3.53;;;5.40;99.90;;;;;;6160645;23;20020;-91
2022/01/17 03:14:10;;;;;;;18.83;2.50;;;5.40;99.90;;;;;;6160532;23;20025;-88
2022/01/17 03:16:41;;;;;;;19.83;2.60;;;5.40;99.90;;;;;;6160738;23;20410;-87
2022/01/17 03:19:07;;;;;;;17.15;2.33;;;5.50;99.90;;;;;;6160812;23;20017;-92
2022/01/17 03:24:08;;;;;;;19.33;2.72;;;5.50;99.90;;;;;;6127163;23;20022;-89
2022/01/17 03:26:34;;;;;;;21.47;2.30;;;5.50;99.90;;;;;;6077520;23;20076;-93
2022/01/17 03:29:01;;;;;;;15.47;2.53;;;5.50;99.90;;;;;;6077626;23;20340;-88
2022/01/17 03:31:27;;;;;;;18.25;2.25;;;5.50;99.90;;;;;;6077603;23;20029;-90
2022/01/17 03:33:53;;;;;;;24.80;2.63;;;5.60;99.90;;;;;;6101408;23;20017;-90
2022/01/17 03:36:28;;;;;;;17.20;2.97;;;5.60;99.90;;;;;;6077428;23;20022;-88
2022/01/17 03:38:55;;;;;;;18.00;1.90;;;5.60;99.90;;;;;;6101595;23;20010;-88
2022/01/17 03:41:40;;;;;;;18.83;2.05;;;5.70;99.90;;;;;;6101628;23;20494;-87
2022/01/17 03:44:07;;;;;;;13.77;2.13;;;5.70;99.90;;;;;;6101414;23;20534;-85
2022/01/17 03:46:34;;;;;;;18.10;2.63;;;5.70;99.90;;;;;;6101268;23;20022;-91
2022/01/17 03:49:00;;;;;;;26.08;3.58;;;5.70;99.90;;;;;;6077365;23;20014;-87
2022/01/17 03:51:25;;;;;;;17.73;2.33;;;5.70;99.90;;;;;;6101259;23;20021;-87
2022/01/17 03:53:51;;;;;;;21.63;3.47;;;5.70;99.90;;;;;;6077189;23;20013;-84
2022/01/17 03:56:18;;;;;;;12.73;2.20;;;5.70;99.90;;;;;;6101343;23;20069;-90
2022/01/17 03:58:49;;;;;;;22.42;3.75;;;5.70;99.90;;;;;;6101242;23;20447;-87
2022/01/17 04:01:15;;;;;;;20.40;3.17;;;5.70;99.90;;;;;;6101129;23;20057;-87
2022/01/17 04:03:41;;;;;;;22.80;3.50;;;5.70;99.90;;;;;;6101146;23;20021;-88
2022/01/17 04:06:06;;;;;;;18.43;2.50;;;5.70;99.90;;;;;;6100988;23;20096;-88
2022/01/17 04:08:34;;;;;;;20.23;2.70;;;5.70;99.90;;;;;;6101157;23;20462;-89
2022/01/17 04:11:00;;;;;;;20.92;2.65;;;5.70;99.90;;;;;;6101156;23;20068;-87
2022/01/17 04:13:25;;;;;;;18.07;2.13;;;5.80;99.90;;;;;;6077027;23;20022;-88
2022/01/17 04:15:51;;;;;;;16.50;2.43;;;5.70;99.90;;;;;;6101207;23;20096;-85
2022/01/17 04:18:23;;;;;;;24.30;2.97;;;5.80;99.90;;;;;;6077344;23;20025;-88
2022/01/17 04:20:49;;;;;;;20.08;2.63;;;5.80;99.90;;;;;;6101147;23;20027;-89
2022/01/17 04:23:14;;;;;;;16.50;2.67;;;5.80;99.90;;;;;;6096032;23;20348;-88
2022/01/17 04:25:42;;;;;;;15.70;2.13;;;5.90;99.90;;;;;;6072384;23;20019;-88
2022/01/17 04:28:09;;;;;;;16.50;2.80;;;5.90;99.90;;;;;;6072250;23;20050;-87
2022/01/17 04:30:36;;;;;;;17.65;1.98;;;5.90;99.90;;;;;;6096533;23;20088;-87
2022/01/17 04:33:02;;;;;;;;;;;5.90;99.90;;;;;;6072893;23;20073;-87
2022/01/17 04:35:29;;;;;;;19.33;2.70;;;5.90;99.90;;;;;;6072097;23;19917;-89
2022/01/17 04:38:17;;;;;;;17.50;2.53;;;5.90;99.90;;;;;;6072127;23;20029;-89
2022/01/17 04:46:01;;;;;;;24.67;3.15;;;6.00;99.90;;;;;;6186033;23;20021;-91
2022/01/17 04:48:26;;;;;;;18.47;2.30;;;6.00;99.90;;;;;;6159865;23;20027;-90
2022/01/17 04:50:52;;;;;;;22.47;2.70;;;6.00;99.90;;;;;;6160080;23;20056;-93
2022/01/17 04:53:21;;;;;;;17.55;2.22;;;6.00;99.90;;;;;;6159853;23;20021;-91
2022/01/17 04:55:48;;;;;;;22.05;3.00;;;6.00;99.90;;;;;;6159903;23;20052;-91
2022/01/17 05:02:12;;;;;;;22.58;3.35;;;6.10;99.90;;;;;;6095728;23;20523;-92
2022/01/17 05:04:38;;;;;;;18.48;3.15;;;6.10;99.90;;;;;;6095437;23;20025;-89
2022/01/17 05:07:05;;;;;;;18.83;3.10;;;6.10;99.90;;;;;;6151736;23;20103;-89
2022/01/17 05:09:31;;;;;;;;;;;6.20;99.90;;;;;;6160310;23;20013;-89
2022/01/17 05:11:56;;;;;;;16.88;3.08;;;6.10;99.90;;;;;;6184469;23;20310;-90
2022/01/17 05:14:24;;;;;;;24.37;3.17;;;6.20;99.90;;;;;;6159756;23;20024;-92
2022/01/17 05:16:57;;;;;;;19.88;3.42;;;6.20;99.90;;;;;;6159788;23;20013;-91
2022/01/17 05:22:07;;;;;;;19.27;3.30;;;6.20;99.90;;;;;;6160026;23;20104;-89
2022/01/17 05:24:32;;;;;;;23.03;3.17;;;6.20;99.90;;;;;;6162947;23;20049;-90
2022/01/17 05:26:58;;;;;;;24.73;2.97;;;6.20;99.90;;;;;;6163056;23;20039;-90
2022/01/17 05:29:24;;;;;;;19.77;3.83;;;6.20;99.90;;;;;;6163335;23;20017;-89
2022/01/17 05:31:50;;;;;;;25.73;3.73;;;6.30;99.90;;;;;;6163182;23;20017;-91
2022/01/17 05:34:15;;;;;;;23.47;4.27;;;6.20;99.90;;;;;;6162989;23;20024;-90
2022/01/17 05:36:41;;;;;;;22.10;3.83;;;6.20;99.90;;;;;;6163065;23;20024;-89
2022/01/17 05:39:07;;;;;;;23.60;3.40;;;6.30;99.90;;;;;;6163246;23;20020;-90
2022/01/17 05:41:32;;;;;;;28.40;4.30;;;6.30;99.90;;;;;;6163129;23;20056;-90
2022/01/17 05:43:58;;;;;;;17.93;3.03;;;6.30;99.90;;;;;;6162137;23;20008;-89
2022/01/17 05:46:24;;;;;;;19.40;3.63;;;6.30;99.90;;;;;;6161734;23;20350;-89
2022/01/17 05:48:50;;;;;;;21.37;3.63;;;6.30;99.90;;;;;;6138262;23;20120;-90
2022/01/17 05:51:16;;;;;;;23.27;3.43;;;6.30;99.90;;;;;;6163276;23;20028;-92
2022/01/17 05:53:41;;;;;;;27.10;3.43;;;6.30;99.90;;;;;;6163021;23;20017;-92
2022/01/17 05:56:10;;;;;;;23.27;3.60;;;6.30;99.90;;;;;;6163015;23;20056;-91
2022/01/17 05:58:35;;;;;;;25.80;4.25;;;6.30;99.90;;;;;;6162891;23;20017;-89
2022/01/17 06:03:42;;;;;;;22.77;4.40;;;6.40;99.90;;;;;;6202831;23;20354;-86
2022/01/17 06:06:26;;;;;;;24.40;4.13;;;6.30;99.90;;;;;;6205462;23;20024;-88
2022/01/17 06:08:52;;;;;;;20.95;3.88;;;6.30;99.90;;;;;;6167748;23;20474;-91
2022/01/17 06:11:18;;;;;;;29.10;4.43;;;6.30;99.90;;;;;;6146417;23;20017;-91
2022/01/17 06:13:44;;;;;;;22.57;4.17;;;6.30;99.90;;;;;;6169419;23;20056;-89
2022/01/17 06:16:10;;;;;;;26.77;4.03;;;6.30;99.90;;;;;;6197380;23;20016;-89
2022/01/17 06:18:38;;;;;;;28.23;4.03;;;6.30;99.90;;;;;;6199993;23;20078;-90
2022/01/17 06:21:35;;;;;;;23.50;4.10;;;6.30;99.90;;;;;;6177500;23;20021;-86
2022/01/17 06:25:00;;;;;;;21.63;4.35;;;6.30;99.90;;;;;;6168656;23;20024;-86
2022/01/17 06:27:26;;;;;;;20.63;4.72;;;6.30;99.90;;;;;;6220730;23;20017;-95
2022/01/17 06:29:56;;;;;;;22.53;4.50;;;6.30;99.90;;;;;;6176695;23;20021;-86
2022/01/17 06:32:22;;;;;;;28.65;5.28;;;6.30;99.90;;;;;;6181743;23;20264;-88
2022/01/17 06:34:50;;;;;;;31.30;5.40;;;6.30;99.90;;;;;;6179667;23;20077;-89
2022/01/17 06:37:16;;;;;;;27.63;4.60;;;6.30;99.90;;;;;;6175735;23;20021;-92
2022/01/17 06:42:18;;;;;;;28.42;4.75;;;6.30;99.90;;;;;;6198289;23;20055;-95
2022/01/17 06:44:49;;;;;;;26.48;5.05;;;6.30;99.90;;;;;;6172245;23;20032;-88
2022/01/17 06:47:39;;;;;;;28.52;4.90;;;6.30;99.90;;;;;;6197102;23;20096;-94
2022/01/17 06:50:14;;;;;;;28.83;5.35;;;6.30;99.90;;;;;;6166812;23;20474;-93
2022/01/17 06:52:45;;;;;;;34.60;4.87;;;6.30;99.90;;;;;;6174979;23;20485;-92
2022/01/17 06:57:55;;;;;;;32.97;4.78;;;6.30;99.90;;;;;;6193162;23;20021;-91
2022/01/17 07:00:20;;;;;;;27.10;4.03;;;6.40;99.90;;;;;;6167894;23;20085;-91
2022/01/17 07:02:46;;;;;;;30.53;5.53;;;6.30;99.90;;;;;;6143116;23;20013;-89
2022/01/17 07:05:13;;;;;;;33.90;4.90;;;6.40;99.90;;;;;;6163063;23;20017;-88
2022/01/17 07:07:39;;;;;;;;;;;6.40;99.90;;;;;;6162590;23;20017;-85
2022/01/17 07:10:05;;;;;;;32.08;4.88;;;6.40;99.90;;;;;;6187255;23;19916;-88
2022/01/17 07:12:31;;;;;;;31.10;5.18;;;6.40;99.90;;;;;;6160475;23;20017;-86
2022/01/17 07:14:57;;;;;;;35.03;4.50;;;6.40;99.90;;;;;;6159092;23;20027;-90
2022/01/17 07:17:22;;;;;;;25.77;4.27;;;6.40;99.90;;;;;;6159200;23;20019;-90
2022/01/17 07:19:48;;;;;;;28.50;6.30;;;6.40;99.90;;;;;;6183953;23;20024;-90
2022/01/17 07:22:14;;;;;;;37.13;4.80;;;6.50;99.90;;;;;;6159322;23;20024;-93
2022/01/17 07:24:40;;;;;;;39.10;5.43;;;6.50;99.90;;;;;;6160087;23;20017;-87
2022/01/17 07:27:06;;;;;;;30.80;5.10;;;6.50;99.90;;;;;;6160577;23;20079;-89
2022/01/17 07:29:31;;;;;;;37.85;6.03;;;6.50;99.90;;;;;;6160476;23;20013;-89
2022/01/17 07:31:57;;;;;;;34.20;4.97;;;6.50;99.90;;;;;;6160335;23;20439;-92
2022/01/17 07:34:23;;;;;;;35.47;4.47;;;6.60;99.90;;;;;;6187103;23;20025;-90
2022/01/17 07:36:49;;;;;;;31.73;4.13;;;6.60;99.90;;;;;;6160672;23;20257;-89
2022/01/17 07:39:16;;;;;;;25.67;4.57;;;6.70;99.90;;;;;;6160637;23;20350;-90
2022/01/17 07:41:43;;;;;;;28.10;4.45;;;6.70;99.90;;;;;;6160725;23;20013;-91
2022/01/17 07:44:18;;;;;;;31.23;5.07;;;6.70;99.90;;;;;;6160185;23;20017;-86
2022/01/17 07:46:49;;;;;;;27.42;4.18;;;6.70;99.90;;;;;;6135720;23;20048;-88
2022/01/17 07:49:21;;;;;;;28.48;4.43;;;6.80;99.90;;;;;;6135738;23;20029;-88
2022/01/17 07:52:02;;;;;;;36.58;4.50;;;6.80;99.90;;;;;;6160255;23;20017;-87
2022/01/17 07:54:31;;;;;;;40.85;5.55;;;6.90;99.90;;;;;;6159970;23;20059;-85
2022/01/17 07:56:59;;;;;;;36.10;4.75;;;6.90;99.90;;;;;;6159958;23;20106;-90
2022/01/17 07:59:25;;;;;;;37.15;4.57;;;6.90;99.90;;;;;;6160241;23;20028;-92
2022/01/17 08:01:51;;;;;;;30.88;4.93;;;6.90;99.90;;;;;;6186220;23;20017;-88
2022/01/17 08:04:18;;;;;;;36.25;4.90;;;6.90;99.90;;;;;;6135672;23;20017;-86
2022/01/17 08:06:46;;;;;;;38.83;4.87;;;6.90;99.90;;;;;;6188293;23;20524;-87
2022/01/17 08:09:17;;;;;;;35.60;4.55;;;7.00;99.90;;;;;;6135351;23;20060;-89
2022/01/17 08:11:43;;;;;;;34.72;5.38;;;7.00;99.90;;;;;;6160154;23;20025;-89
2022/01/17 08:14:09;;;;;;;28.80;4.23;;;7.00;99.90;;;;;;6135308;23;20071;-91
2022/01/17 08:16:35;;;;;;;34.03;5.57;;;7.10;99.90;;;;;;6159797;23;20036;-87
2022/01/17 08:19:01;;;;;;;43.40;5.70;;;7.10;99.90;;;;;;6162193;23;20017;-90
2022/01/17 08:21:27;;;;;;;35.63;5.05;;;7.10;99.90;;;;;;6162251;23;20013;-91
2022/01/17 08:23:53;;;;;;;34.30;5.10;;;7.20;99.90;;;;;;6160175;23;20546;-94
2022/01/17 08:26:20;;;;;;;27.38;4.68;;;7.20;99.90;;;;;;6160182;23;20068;-91
2022/01/17 08:28:47;;;;;;;40.25;5.78;;;7.20;99.90;;;;;;6160686;23;20506;-90
2022/01/17 08:31:13;;;;;;;37.28;5.18;;;7.30;99.90;;;;;;6161046;23;20446;-88
2022/01/17 08:33:39;;;;;;;34.57;5.40;;;7.30;99.90;;;;;;6161631;23;20020;-88
2022/01/17 08:36:07;;;;;;;40.10;5.72;;;7.30;99.90;;;;;;6161156;23;20351;-90
2022/01/17 08:38:35;;;;;;;37.17;5.63;;;7.30;99.90;;;;;;6168018;23;20017;-87
2022/01/17 08:41:01;;;;;;;39.30;5.90;;;7.40;99.90;;;;;;6160975;23;20025;-89
2022/01/17 08:43:30;;;;;;;43.20;5.97;;;7.40;99.90;;;;;;6163367;23;20017;-94
2022/01/17 08:45:56;;;;;;;37.00;5.78;;;7.50;99.90;;;;;;6159946;23;20107;-90
2022/01/17 08:48:22;;;;;;;33.50;5.63;;;7.50;99.90;;;;;;6163512;23;20020;-94
2022/01/17 08:50:48;;;;;;;29.88;5.82;;;7.50;99.90;;;;;;6167576;23;20017;-95
2022/01/17 08:53:17;;;;;;;45.97;5.93;;;7.60;99.90;;;;;;6166626;23;20032;-90
2022/01/17 08:55:45;;;;;;;42.05;6.25;;;7.60;99.90;;;;;;6166262;23;20025;-96
2022/01/17 08:58:12;;;;;;;39.90;5.47;;;7.70;99.90;;;;;;6162060;23;20079;-91
2022/01/17 09:00:38;;;;;;;44.22;5.40;;;7.70;99.90;;;;;;6135454;23;20047;-91
2022/01/17 09:03:04;;;;;;;51.30;6.63;;;7.70;99.90;;;;;;6159948;23;20462;-93
2022/01/17 09:05:32;;;;;;;39.42;5.30;;;7.70;99.90;;;;;;6159953;23;20025;-93
2022/01/17 09:08:03;;;;;;;37.95;5.88;;;7.80;99.90;;;;;;6188601;23;20017;-91
2022/01/17 09:10:35;;;;;;;43.75;5.45;;;7.80;99.90;;;;;;6165927;23;20116;-93
2022/01/17 09:13:02;;;;;;;32.63;5.82;;;7.80;99.90;;;;;;6163229;23;20021;-91
2022/01/17 09:15:28;;;;;;;36.85;6.50;;;7.80;99.90;;;;;;6165850;23;20025;-92
2022/01/17 09:17:56;;;;;;;40.30;5.53;;;7.90;99.90;;;;;;6164158;23;20462;-91
2022/01/17 09:20:21;;;;;;;39.65;6.25;;;7.90;99.90;;;;;;6159759;23;20032;-92
2022/01/17 09:22:47;;;;;;;45.97;5.90;;;7.90;99.90;;;;;;6159455;23;20018;-92
2022/01/17 09:25:13;;;;;;;43.83;6.67;;;7.90;99.90;;;;;;6159475;23;20407;-94
2022/01/17 09:27:39;;;;;;;38.27;6.00;;;8.00;99.90;;;;;;6159678;23;20327;-90
2022/01/17 09:30:08;;;;;;;44.40;5.80;;;8.00;99.90;;;;;;6186023;23;20449;-91
2022/01/17 09:32:36;;;;;;;35.22;5.68;;;8.00;99.90;;;;;;6159799;23;20017;-93
2022/01/17 09:35:02;;;;;;;41.30;5.95;;;8.00;99.90;;;;;;6134722;23;20025;-91
2022/01/17 09:37:28;;;;;;;39.33;6.00;;;8.00;99.90;;;;;;6159705;23;20147;-93
2022/01/17 09:39:54;;;;;;;47.17;7.63;;;8.00;99.90;;;;;;6159623;23;20060;-93
2022/01/17 09:42:20;;;;;;;42.77;5.80;;;8.10;99.90;;;;;;6159419;23;20060;-89
2022/01/17 09:44:45;;;;;;;35.87;6.30;;;8.10;99.90;;;;;;6158952;23;20059;-93
2022/01/17 09:47:13;;;;;;;49.70;7.23;;;8.10;99.90;;;;;;6159291;23;20796;-91
2022/01/17 09:49:51;;;;;;;39.78;6.13;;;8.10;99.90;;;;;;6159618;23;20057;-88
2022/01/17 09:54:53;;;;;;;51.85;6.60;;;8.20;99.90;;;;;;6163978;23;20021;-90
2022/01/17 09:57:20;;;;;;;38.75;6.25;;;8.20;99.90;;;;;;6164054;23;20461;-92
2022/01/17 09:59:47;;;;;;;50.17;7.70;;;8.20;99.90;;;;;;6136802;23;20025;-91
2022/01/17 10:02:13;;;;;;;45.55;7.75;;;8.20;99.90;;;;;;6197151;23;20040;-93
2022/01/17 10:04:42;;;;;;;50.83;5.68;;;8.30;99.90;;;;;;6165924;23;20092;-91
2022/01/17 10:07:08;;;;;;;43.40;6.97;;;8.30;99.90;;;;;;6159920;23;20024;-95
2022/01/17 10:09:35;;;;;;;49.00;7.78;;;8.30;99.90;;;;;;6160154;23;20331;-93
2022/01/17 10:12:08;;;;;;;42.25;6.82;;;8.40;99.90;;;;;;6160843;23;20021;-91
2022/01/17 10:14:41;;;;;;;44.50;7.18;;;8.40;99.90;;;;;;6187764;23;20059;-95
2022/01/17 10:17:16;;;;;;;51.38;7.32;;;8.40;99.90;;;;;;6187539;23;20056;-93
2022/01/17 10:19:43;;;;;;;42.13;6.63;;;8.40;99.90;;;;;;6137767;23;20053;-91
2022/01/17 10:22:18;;;;;;;50.92;7.50;;;8.40;99.90;;;;;;6161382;23;20021;-87
2022/01/17 10:24:58;;;;;;;43.55;7.25;;;8.40;99.90;;;;;;6161389;23;20520;-90
2022/01/17 10:27:53;;;;;;;45.25;6.13;;;8.50;99.90;;;;;;6161671;23;20071;-92
2022/01/17 10:30:42;;;;;;;44.42;6.80;;;8.50;99.90;;;;;;6187985;23;20080;-92
2022/01/17 10:35:56;;;;;;;48.70;7.03;;;8.50;99.90;;;;;;6161587;23;20028;-94
2022/01/17 10:38:25;;;;;;;54.72;8.00;;;8.50;99.90;;;;;;6188088;23;20375;-92
2022/01/17 10:41:02;;;;;;;43.72;6.82;;;8.50;99.90;;;;;;6161158;23;20107;-90
2022/01/17 10:43:38;;;;;;;55.22;7.03;;;8.50;99.90;;;;;;6160707;23;20017;-92
2022/01/17 10:46:12;;;;;;;57.00;7.95;;;8.50;99.90;;;;;;6136515;23;20056;-91
2022/01/17 10:48:45;;;;;;;46.38;7.53;;;8.50;99.90;;;;;;6161535;23;20017;-95
2022/01/17 10:51:12;;;;;;;46.63;7.28;;;8.50;99.90;;;;;;6161329;23;20016;-89
2022/01/17 10:53:40;;;;;;;54.42;7.95;;;8.50;99.90;;;;;;6136621;23;20017;-91
2022/01/17 10:56:09;;;;;;;54.65;8.13;;;8.60;99.90;;;;;;6161291;23;20021;-92
2022/01/17 10:58:38;;;;;;;44.42;6.55;;;8.60;99.90;;;;;;6160582;23;20021;-95
2022/01/17 11:01:11;;;;;;;56.35;8.32;;;8.70;99.90;;;;;;6158195;23;20031;-92
2022/01/17 11:03:38;;;;;;;50.92;6.78;;;8.70;99.90;;;;;;6160028;23;20024;-92
2022/01/17 11:06:10;;;;;;;46.72;8.85;;;8.70;99.90;;;;;;6161739;23;20083;-91
2022/01/17 11:08:38;;;;;;;53.63;7.32;;;8.80;99.90;;;;;;6161318;23;20017;-93
2022/01/17 11:11:08;;;;;;;45.65;7.35;;;8.80;99.90;;;;;;6160991;23;20032;-87
2022/01/17 11:13:35;;;;;;;46.88;8.23;;;8.80;99.90;;;;;;6160603;23;20025;-89
2022/01/17 11:16:07;;;;;;;55.08;8.05;;;8.80;99.90;;;;;;6160736;23;20067;-94
2022/01/17 11:18:35;;;;;;;53.22;8.05;;;8.80;99.90;;;;;;6187167;23;20013;-95
2022/01/17 11:21:11;;;;;;;56.80;8.50;;;8.80;99.90;;;;;;6160749;23;20017;-96
2022/01/17 11:23:43;;;;;;;56.65;8.23;;;8.80;99.90;;;;;;6161045;23;20025;-91
2022/01/17 11:26:10;;;;;;;57.65;7.65;;;8.80;99.90;;;;;;6161134;23;20077;-88
2022/01/17 11:28:39;;;;;;;52.67;7.93;;;8.80;99.90;;;;;;6159760;23;20032;-93
2022/01/17 11:31:12;;;;;;;51.78;7.60;;;8.80;99.90;;;;;;6160982;23;20473;-92
2022/01/17 11:33:38;;;;;;;51.63;8.90;;;8.80;99.90;;;;;;6160664;23;20017;-94
2022/01/17 11:36:04;;;;;;;54.50;7.37;;;8.80;99.90;;;;;;6161036;23;20120;-96
2022/01/17 11:38:36;;;;;;;51.80;7.47;;;8.80;99.90;;;;;;6137216;23;20017;-91
2022/01/17 11:41:03;;;;;;;55.65;7.80;;;8.80;99.90;;;;;;6160727;23;20100;-96
2022/01/17 11:43:35;;;;;;;45.78;8.38;;;8.80;99.90;;;;;;6136627;23;20324;-91
2022/01/17 11:46:16;;;;;;;52.28;8.68;;;8.90;99.90;;;;;;6160732;23;20025;-92
2022/01/17 11:49:06;;;;;;;55.88;7.90;;;8.90;99.90;;;;;;6161049;23;20394;-93
2022/01/17 11:51:40;;;;;;;57.85;9.27;;;8.90;99.90;;;;;;6187128;23;20017;-92
2022/01/17 11:54:18;;;;;;;50.65;8.65;;;8.90;99.90;;;;;;6185660;23;20495;-95
2022/01/17 11:56:53;;;;;;;56.97;8.75;;;8.90;99.90;;;;;;6160221;23;20056;-93
2022/01/17 11:59:42;;;;;;;51.25;8.65;;;8.90;99.90;;;;;;6160419;23;20017;-93
2022/01/17 12:02:13;;;;;;;49.88;9.32;;;8.90;99.90;;;;;;6187512;23;20017;-90
2022/01/17 12:04:39;;;;;;;51.03;7.63;;;9.00;99.90;;;;;;6160555;23;20350;-88
2022/01/17 12:07:05;;;;;;;57.87;8.47;;;9.00;99.90;;;;;;6136015;23;20092;-91
2022/01/17 12:09:31;;;;;;;53.63;8.67;;;9.00;99.90;;;;;;6160649;23;20546;-93
2022/01/17 12:12:02;;;;;;;53.22;9.45;;;9.00;99.90;;;;;;6160235;23;20052;-92
2022/01/17 12:14:33;;;;;;;50.53;8.30;;;8.90;99.90;;;;;;6160040;23;20028;-91
2022/01/17 12:17:27;;;;;;;53.65;8.40;;;8.90;99.90;;;;;;6160082;23;20031;-94
2022/01/17 12:20:09;;;;;;;46.60;7.38;;;8.90;99.90;;;;;;6186301;23;20021;-94
2022/01/17 12:23:10;;;;;;;52.38;8.68;;;8.80;99.90;;;;;;6184968;23;20024;-92
2022/01/17 12:25:36;;;;;;;51.83;8.18;;;8.80;99.90;;;;;;6126601;23;20021;-91
2022/01/17 12:28:04;;;;;;;54.37;8.63;;;8.70;99.90;;;;;;6186301;23;20320;-92
2022/01/17 12:30:50;;;;;;;44.83;7.70;;;8.70;99.90;;;;;;6160027;23;20020;-90
2022/01/17 12:33:28;;;;;;;40.45;7.07;;;8.60;99.90;;;;;;6159519;23;20063;-91
2022/01/17 12:35:59;;;;;;;46.95;7.63;;;8.60;99.90;;;;;;6159872;23;20463;-93
2022/01/17 12:38:29;;;;;;;53.05;8.38;;;8.60;99.90;;;;;;6159605;23;20021;-91
2022/01/17 12:40:55;;;;;;;51.50;8.23;;;8.60;99.90;;;;;;6160104;23;20067;-94
2022/01/17 12:43:29;;;;;;;51.30;8.95;;;8.60;99.90;;;;;;6186240;23;20410;-93
2022/01/17 12:46:07;;;;;;;53.08;9.07;;;8.60;99.90;;;;;;6185967;23;20525;-93
2022/01/17 12:48:35;;;;;;;53.70;8.93;;;8.60;99.90;;;;;;6135498;23;20065;-91
2022/01/17 12:51:05;;;;;;;51.88;9.25;;;8.70;99.90;;;;;;6160728;23;20021;-94
2022/01/17 12:53:31;;;;;;;51.00;8.13;;;8.70;99.90;;;;;;6162165;23;20028;-91
2022/01/17 12:56:00;;;;;;;48.43;9.00;;;8.70;99.90;;;;;;6168659;23;20025;-91
2022/01/17 12:58:28;;;;;;;48.20;6.47;;;8.70;99.90;;;;;;6162338;23;20024;-90
2022/01/17 13:01:01;;;;;;;50.85;9.00;;;8.80;99.90;;;;;;6190702;23;20079;-88
2022/01/17 13:03:29;;;;;;;43.92;7.65;;;8.80;99.90;;;;;;6167083;23;20017;-89
2022/01/17 13:05:56;;;;;;;58.20;8.48;;;8.80;99.90;;;;;;6136594;23;20028;-88
2022/01/17 13:08:23;;;;;;;51.88;8.98;;;8.80;99.90;;;;;;6159505;23;20028;-87
2022/01/17 13:10:49;;;;;;;;;;;8.80;99.90;;;;;;6135711;23;20027;-92
2022/01/17 13:13:16;;;;;;;44.55;7.32;;;8.80;99.90;;;;;;6185909;23;19939;-89
2022/01/17 13:15:54;;;;;;;56.20;8.95;;;8.90;99.90;;;;;;6159436;23;20049;-91
2022/01/17 13:18:20;;;;;;;46.28;6.63;;;8.90;99.90;;;;;;6159607;23;20025;-88
2022/01/17 13:20:47;;;;;;;42.63;7.40;;;8.90;99.90;;;;;;6134799;23;20020;-92
2022/01/17 13:23:14;;;;;;;49.33;7.47;;;8.90;99.90;;;;;;6185916;23;20100;-88
2022/01/17 13:25:40;;;;;;;47.08;7.35;;;8.90;99.90;;;;;;6159729;23;20095;-93
2022/01/17 13:28:06;;;;;;;57.03;9.23;;;8.80;99.90;;;;;;6159743;23;20056;-90
2022/01/17 13:30:34;;;;;;;53.42;7.70;;;8.80;99.90;;;;;;6159406;23;20804;-92
2022/01/17 13:33:07;;;;;;;50.60;8.02;;;8.80;99.90;;;;;;6159225;23;20048;-93
2022/01/17 13:35:37;;;;;;;47.35;8.27;;;8.80;99.90;;;;;;6158577;23;20096;-88
2022/01/17 13:38:17;;;;;;;48.33;7.63;;;8.80;99.90;;;;;;6183161;23;20021;-88
2022/01/17 13:40:43;;;;;;;39.13;6.38;;;8.80;99.90;;;;;;6132809;23;20454;-90
2022/01/17 13:43:08;;;;;;;38.10;5.77;;;8.90;99.90;;;;;;6158699;23;20013;-94
2022/01/17 13:45:36;;;;;;;45.40;7.37;;;8.90;99.90;;;;;;6187890;23;20017;-92
2022/01/17 13:48:05;;;;;;;39.30;5.93;;;8.90;99.90;;;;;;6161586;23;20017;-90
2022/01/17 13:50:34;;;;;;;36.72;6.80;;;8.90;99.90;;;;;;6161158;23;20016;-91
2022/01/17 13:53:00;;;;;;;34.72;6.10;;;8.90;99.90;;;;;;6161041;23;20048;-96